Terminal Aerodrome Forecast
Issued by NWS King Salmon, AK

Home | Current Version | Previous Version | Text Only | Print | Product List | Glossary On
Versions: 1 2 3 4 5 6 7 8 9 10 11 12 13 14 15 16 17 18 19 20 21 22 23 24 25 26 27 28 29 30
000
FTAK31 PANC 272328
TAFAKN
TAF
PAKN 272328Z 2800/2824 12011KT P6SM VCSH SCT050 BKN060
      TEMPO 2800/2804 12010G20KT
     FM280400 07009KT P6SM SCT050 BKN100
     FM280900 06012G22KT P6SM VCSH BKN050=

USA.gov is the U.S. government's official web portal to all federal, state and local government web resources and services.